createdAt,value
2022-09-24T00:01:56.555Z,12.68
2022-09-24T00:04:26.070Z,12.70
2022-09-24T00:06:55.565Z,12.70
2022-09-24T00:09:22.359Z,12.70
2022-09-24T00:11:50.326Z,12.69
2022-09-24T00:14:17.368Z,12.70
2022-09-24T00:16:45.228Z,12.66
2022-09-24T00:19:13.566Z,12.67
2022-09-24T00:21:41.499Z,12.65
2022-09-24T00:24:12.481Z,12.65
2022-09-24T00:26:38.986Z,12.66
2022-09-24T00:29:07.125Z,12.67
2022-09-24T00:31:33.901Z,12.66
2022-09-24T00:34:00.671Z,12.67
2022-09-24T00:36:27.828Z,12.68
2022-09-24T00:38:57.483Z,12.68
2022-09-24T00:41:30.557Z,12.68
2022-09-24T00:43:57.812Z,12.72
2022-09-24T00:46:41.237Z,12.73
2022-09-24T00:49:13.754Z,12.77
2022-09-24T00:51:42.876Z,12.80
2022-09-24T00:54:21.161Z,12.83
2022-09-24T00:56:52.403Z,12.88
2022-09-24T00:59:23.741Z,12.92
2022-09-24T01:01:52.584Z,12.97
2022-09-24T01:04:21.150Z,13.01
2022-09-24T01:06:51.984Z,13.05
2022-09-24T01:09:22.590Z,13.09
2022-09-24T01:11:53.734Z,13.11
2022-09-24T01:14:20.174Z,13.14
2022-09-24T01:16:52.314Z,13.14
2022-09-24T01:19:49.107Z,13.13
2022-09-24T01:22:40.500Z,13.13
2022-09-24T01:25:28.556Z,13.11
2022-09-24T01:28:10.039Z,13.11
2022-09-24T01:30:40.229Z,13.12
2022-09-24T01:33:16.090Z,13.11
2022-09-24T01:35:51.795Z,13.09
2022-09-24T01:38:29.046Z,13.05
2022-09-24T01:40:59.489Z,13.03
2022-09-24T01:43:28.032Z,13.02
2022-09-24T01:46:00.736Z,12.99
2022-09-24T01:48:28.685Z,12.98
2022-09-24T01:51:02.681Z,12.92
2022-09-24T01:53:40.304Z,12.89
2022-09-24T01:56:33.896Z,12.84
2022-09-24T01:59:12.870Z,12.80
2022-09-24T02:02:27.410Z,12.74
2022-09-24T02:05:05.347Z,12.72
2022-09-24T02:07:37.810Z,12.68
2022-09-24T02:10:04.782Z,12.68
2022-09-24T02:12:37.133Z,12.65
2022-09-24T02:15:45.046Z,12.63
2022-09-24T02:18:16.673Z,12.62
2022-09-24T02:20:44.550Z,12.60
2022-09-24T02:23:11.712Z,12.59
2022-09-24T02:25:43.854Z,12.58
2022-09-24T02:28:10.594Z,12.57
2022-09-24T02:30:57.791Z,12.55
2022-09-24T02:33:27.043Z,12.53
2022-09-24T02:35:53.685Z,12.51
2022-09-24T02:38:20.280Z,12.50
2022-09-24T02:40:48.362Z,12.48
2022-09-24T02:43:14.784Z,12.37
2022-09-24T02:45:41.339Z,12.41
2022-09-24T02:48:07.989Z,12.39
2022-09-24T02:50:34.551Z,12.38
2022-09-24T02:53:01.376Z,12.34
2022-09-24T02:55:28.106Z,12.33
2022-09-24T02:57:54.654Z,12.33
2022-09-24T03:00:21.153Z,12.33
2022-09-24T03:02:47.960Z,12.33
2022-09-24T03:05:14.928Z,12.34
2022-09-24T03:07:41.427Z,12.36
2022-09-24T03:10:08.482Z,12.37
2022-09-24T03:12:35.070Z,12.37
2022-09-24T03:15:01.601Z,12.37
2022-09-24T03:17:28.153Z,12.38
2022-09-24T03:19:54.713Z,12.39
2022-09-24T03:22:21.235Z,12.39
2022-09-24T03:24:47.942Z,12.38
2022-09-24T03:27:14.417Z,12.40
2022-09-24T03:29:40.977Z,12.40
2022-09-24T03:32:07.517Z,12.40
2022-09-24T03:34:34.049Z,12.41
2022-09-24T03:37:00.597Z,12.41
2022-09-24T03:39:27.130Z,12.43
2022-09-24T03:41:53.564Z,12.45
2022-09-24T03:44:20.120Z,12.45
2022-09-24T03:46:46.630Z,12.46
2022-09-24T03:49:13.127Z,12.49
2022-09-24T03:51:39.694Z,12.50
2022-09-24T03:54:06.192Z,12.52
2022-09-24T03:56:32.774Z,12.54
2022-09-24T03:58:59.373Z,12.56
2022-09-24T04:01:25.941Z,12.59
2022-09-24T04:03:53.244Z,12.62
2022-09-24T04:06:25.560Z,12.63
2022-09-24T04:08:52.433Z,12.65
2022-09-24T04:11:19.147Z,12.68
2022-09-24T04:13:45.636Z,12.70
2022-09-24T04:16:12.204Z,12.72
2022-09-24T04:18:39.503Z,12.75
2022-09-24T04:21:06.832Z,12.76
2022-09-24T04:23:33.352Z,12.77
2022-09-24T04:26:00.191Z,12.79
2022-09-24T04:28:26.683Z,12.79
2022-09-24T04:30:53.185Z,12.81
2022-09-24T04:33:19.781Z,12.82
2022-09-24T04:35:46.536Z,12.83
2022-09-24T04:38:13.552Z,12.83
2022-09-24T04:40:40.177Z,12.85
2022-09-24T04:43:07.153Z,12.85
2022-09-24T04:45:33.965Z,12.86
2022-09-24T04:48:00.860Z,12.88
2022-09-24T04:50:29.310Z,12.89
2022-09-24T04:52:56.581Z,12.91
2022-09-24T04:55:23.930Z,12.96
2022-09-24T04:57:50.491Z,12.98
2022-09-24T05:00:19.664Z,13.01
2022-09-24T05:02:46.292Z,13.05
2022-09-24T05:05:13.511Z,13.07
2022-09-24T05:07:42.026Z,13.11
2022-09-24T05:10:09.131Z,13.14
2022-09-24T05:12:35.604Z,13.18
2022-09-24T05:15:03.924Z,13.21
2022-09-24T05:17:30.292Z,13.14
2022-09-24T05:19:56.853Z,13.23
2022-09-24T05:22:24.432Z,13.28
2022-09-24T05:24:51.005Z,13.31
2022-09-24T05:27:17.588Z,13.33
2022-09-24T05:29:44.118Z,13.36
2022-09-24T05:32:13.545Z,13.36
2022-09-24T05:34:40.153Z,13.38
2022-09-24T05:37:07.238Z,13.41
2022-09-24T05:39:34.446Z,13.45
2022-09-24T05:42:01.568Z,13.46
2022-09-24T05:44:28.038Z,13.49
2022-09-24T05:46:54.561Z,13.52
2022-09-24T05:49:21.109Z,13.57
2022-09-24T05:51:51.439Z,13.60
2022-09-24T05:54:19.149Z,13.63
2022-09-24T05:56:46.232Z,13.66
2022-09-24T05:59:13.290Z,13.72
2022-09-24T06:01:40.100Z,13.75
2022-09-24T06:04:09.000Z,13.79
2022-09-24T06:06:36.114Z,13.84
2022-09-24T06:09:03.565Z,13.86
2022-09-24T06:11:36.359Z,13.88
2022-09-24T06:14:06.503Z,13.93
2022-09-24T06:16:33.995Z,13.97
2022-09-24T06:19:01.089Z,14.01
2022-09-24T06:21:28.090Z,14.08
2022-09-24T06:23:54.573Z,14.11
2022-09-24T06:26:21.150Z,14.15
2022-09-24T06:28:47.725Z,14.17
2022-09-24T06:31:14.365Z,14.21
2022-09-24T06:33:40.975Z,14.24
2022-09-24T06:36:07.794Z,14.30
2022-09-24T06:38:34.417Z,14.36
2022-09-24T06:41:02.862Z,14.42
2022-09-24T06:43:30.347Z,14.49
2022-09-24T06:45:58.117Z,14.57
2022-09-24T06:48:25.167Z,14.64
2022-09-24T06:50:52.073Z,14.71
2022-09-24T06:53:18.901Z,14.78
2022-09-24T06:55:47.041Z,14.86
2022-09-24T06:58:16.597Z,14.96
2022-09-24T07:00:49.887Z,15.03
2022-09-24T07:03:16.541Z,15.11
2022-09-24T07:05:43.898Z,15.19
2022-09-24T07:08:11.180Z,15.28
2022-09-24T07:10:37.699Z,15.34
2022-09-24T07:13:04.272Z,15.42
2022-09-24T07:15:30.864Z,15.48
2022-09-24T07:17:57.762Z,15.56
2022-09-24T07:20:25.713Z,15.64
2022-09-24T07:22:52.281Z,15.70
2022-09-24T07:25:18.829Z,15.76
2022-09-24T07:27:45.390Z,15.85
2022-09-24T07:30:12.834Z,15.92
2022-09-24T07:32:39.382Z,16.00
2022-09-24T07:35:06.388Z,16.06
2022-09-24T07:37:33.260Z,16.12
2022-09-24T07:40:00.174Z,16.19
2022-09-24T07:42:26.678Z,16.26
2022-09-24T07:44:53.292Z,16.30
2022-09-24T07:47:19.972Z,16.38
2022-09-24T07:49:46.568Z,16.43
2022-09-24T07:52:13.138Z,16.48
2022-09-24T07:54:39.834Z,16.55
2022-09-24T07:57:11.201Z,16.60
2022-09-24T07:59:37.923Z,16.68
2022-09-24T08:02:13.871Z,16.75
2022-09-24T08:04:40.623Z,16.84
2022-09-24T08:07:07.251Z,16.92
2022-09-24T08:09:33.879Z,17.04
2022-09-24T08:12:00.648Z,17.12
2022-09-24T08:14:27.157Z,17.22
2022-09-24T08:16:53.632Z,17.33
2022-09-24T08:19:20.291Z,17.40
2022-09-24T08:21:46.815Z,17.46
2022-09-24T08:24:13.415Z,17.53
2022-09-24T08:26:40.096Z,17.59
2022-09-24T08:29:06.735Z,17.63
2022-09-24T08:31:33.276Z,17.67
2022-09-24T08:33:59.925Z,17.71
2022-09-24T08:36:26.652Z,17.74
2022-09-24T08:38:54.274Z,17.74
2022-09-24T08:41:56.597Z,17.73
2022-09-24T08:44:30.429Z,17.75
2022-09-24T08:47:01.915Z,17.76
2022-09-24T08:49:41.421Z,17.74
2022-09-24T08:52:30.784Z,17.70
2022-09-24T08:55:00.814Z,17.68
2022-09-24T08:57:28.340Z,17.65
2022-09-24T08:59:55.031Z,17.61
2022-09-24T09:02:27.371Z,17.58
2022-09-24T09:05:02.628Z,17.53
2022-09-24T09:07:52.747Z,17.52
2022-09-24T09:10:24.396Z,17.51
2022-09-24T09:12:56.919Z,17.51
2022-09-24T09:15:23.506Z,17.52
2022-09-24T09:18:12.866Z,17.49
2022-09-24T09:20:42.787Z,17.52
2022-09-24T09:23:37.089Z,17.55
2022-09-24T09:26:03.711Z,17.59
2022-09-24T09:28:30.325Z,17.62
2022-09-24T09:30:56.835Z,17.67
2022-09-24T09:33:45.157Z,17.70
2022-09-24T09:36:20.907Z,17.76
2022-09-24T09:39:16.191Z,17.81
2022-09-24T09:42:03.755Z,17.85
2022-09-24T09:44:37.348Z,17.90
2022-09-24T09:47:26.578Z,17.93
2022-09-24T09:49:57.714Z,17.97
2022-09-24T09:52:28.563Z,18.00
2022-09-24T09:54:55.133Z,18.06
2022-09-24T09:57:23.919Z,18.09
2022-09-24T09:59:53.222Z,18.15
2022-09-24T10:02:31.416Z,18.21
2022-09-24T10:05:00.962Z,18.31
2022-09-24T10:07:28.092Z,18.37
2022-09-24T10:10:00.433Z,18.44
2022-09-24T10:12:27.401Z,18.50
2022-09-24T10:15:15.012Z,18.53
2022-09-24T10:17:42.768Z,18.61
2022-09-24T10:20:17.571Z,18.66
2022-09-24T10:22:51.331Z,18.71
2022-09-24T10:25:23.036Z,18.74
2022-09-24T10:27:49.820Z,18.78
2022-09-24T10:30:17.175Z,18.80
2022-09-24T10:32:44.234Z,18.78
2022-09-24T10:35:27.956Z,18.78
2022-09-24T10:37:56.963Z,18.81
2022-09-24T10:40:43.868Z,18.81
2022-09-24T10:43:17.402Z,18.82
2022-09-24T10:45:44.006Z,18.89
2022-09-24T10:48:24.742Z,18.90
2022-09-24T10:51:21.514Z,18.91
2022-09-24T10:54:06.154Z,18.96
2022-09-24T10:56:46.157Z,18.97
2022-09-24T10:59:34.788Z,19.02
2022-09-24T11:02:13.331Z,19.07
2022-09-24T11:05:02.530Z,19.11
2022-09-24T11:07:44.067Z,19.14
2022-09-24T11:10:19.513Z,19.21
2022-09-24T11:12:52.351Z,19.26
2022-09-24T11:15:32.455Z,19.30
2022-09-24T11:18:20.857Z,19.38
2022-09-24T11:21:32.248Z,19.42
2022-09-24T11:24:08.024Z,19.48
2022-09-24T11:27:05.914Z,19.47
2022-09-24T11:30:02.082Z,19.45
2022-09-24T11:33:09.511Z,19.45
2022-09-24T11:35:56.867Z,19.46
2022-09-24T11:38:32.373Z,19.46
2022-09-24T11:41:11.648Z,19.47
2022-09-24T11:43:59.262Z,19.43
2022-09-24T11:46:43.491Z,19.43
2022-09-24T11:49:34.666Z,19.36
2022-09-24T11:52:27.508Z,19.34
2022-09-24T11:55:05.931Z,19.32
2022-09-24T11:57:38.438Z,19.30
2022-09-24T12:00:12.333Z,19.26
2022-09-24T12:02:52.523Z,19.21
2022-09-24T12:05:33.970Z,19.19
2022-09-24T12:08:23.007Z,19.18
2022-09-24T12:10:55.089Z,19.19
2022-09-24T12:13:30.867Z,19.20
2022-09-24T12:16:02.755Z,19.27
2022-09-24T12:18:38.564Z,19.30
2022-09-24T12:21:15.490Z,19.32
2022-09-24T12:23:46.156Z,19.39
2022-09-24T12:26:16.224Z,19.47
2022-09-24T12:29:17.861Z,19.53
2022-09-24T12:32:06.446Z,19.62
2022-09-24T12:35:07.717Z,19.69
2022-09-24T12:37:40.822Z,19.78
2022-09-24T12:40:19.199Z,19.81
2022-09-24T12:42:54.380Z,19.86
2022-09-24T12:45:22.981Z,19.91
2022-09-24T12:47:54.088Z,19.91
2022-09-24T12:50:27.175Z,19.88
2022-09-24T12:52:54.214Z,19.87
2022-09-24T12:55:27.052Z,19.81
2022-09-24T12:58:03.260Z,19.75
2022-09-24T13:00:44.467Z,19.69
2022-09-24T13:03:39.069Z,19.61
2022-09-24T13:06:22.965Z,19.49
2022-09-24T13:08:49.602Z,19.51
2022-09-24T13:11:27.423Z,19.48
2022-09-24T13:14:20.881Z,19.40
2022-09-24T13:16:51.909Z,19.39
2022-09-24T13:19:34.309Z,19.40
2022-09-24T13:22:01.918Z,19.40
2022-09-24T13:24:44.872Z,19.43
2022-09-24T13:27:35.302Z,19.44
2022-09-24T13:30:18.427Z,19.49
2022-09-24T13:32:58.872Z,19.53
2022-09-24T13:35:50.261Z,19.61
2022-09-24T13:38:23.884Z,19.62
2022-09-24T13:40:57.045Z,19.65
2022-09-24T13:43:40.855Z,19.68
2022-09-24T13:46:14.823Z,19.71
2022-09-24T13:48:49.175Z,19.79
2022-09-24T13:51:18.130Z,19.85
2022-09-24T13:53:55.881Z,19.95
2022-09-24T13:56:23.329Z,19.99
2022-09-24T13:58:50.127Z,19.95
2022-09-24T14:01:26.970Z,19.92
2022-09-24T14:03:57.056Z,19.89
2022-09-24T14:06:37.075Z,19.83
2022-09-24T14:09:25.315Z,19.81
2022-09-24T14:11:54.643Z,19.77
2022-09-24T14:14:23.280Z,19.73
2022-09-24T14:16:50.594Z,19.69
2022-09-24T14:19:17.192Z,19.64
2022-09-24T14:21:51.407Z,19.60
2022-09-24T14:24:27.368Z,19.56
2022-09-24T14:26:58.877Z,19.53
2022-09-24T14:29:48.069Z,19.50
2022-09-24T14:32:33.288Z,19.49
2022-09-24T14:35:05.653Z,19.53
2022-09-24T14:37:45.796Z,19.51
2022-09-24T14:40:17.940Z,19.49
2022-09-24T14:42:48.530Z,19.47
2022-09-24T14:45:23.840Z,19.42
2022-09-24T14:48:05.090Z,19.36
2022-09-24T14:50:41.077Z,19.32
2022-09-24T14:53:21.194Z,19.28
2022-09-24T14:55:48.267Z,19.24
2022-09-24T14:58:26.652Z,19.18
2022-09-24T15:01:17.499Z,19.13
2022-09-24T15:03:51.571Z,19.13
2022-09-24T15:06:20.357Z,19.12
2022-09-24T15:08:59.210Z,19.08
2022-09-24T15:11:27.516Z,19.05
2022-09-24T15:14:01.610Z,19.00
2022-09-24T15:16:33.631Z,18.99
2022-09-24T15:19:21.103Z,18.93
2022-09-24T15:21:49.495Z,18.91
2022-09-24T15:24:17.553Z,18.89
2022-09-24T15:26:45.520Z,18.76
2022-09-24T15:29:20.826Z,18.81
2022-09-24T15:31:47.615Z,18.81
2022-09-24T15:34:19.060Z,18.78
2022-09-24T15:36:53.533Z,18.74
2022-09-24T15:39:20.102Z,18.71
2022-09-24T15:41:46.700Z,18.67
2022-09-24T15:44:22.339Z,18.66
2022-09-24T15:46:49.933Z,18.61
2022-09-24T15:49:17.876Z,18.57
2022-09-24T15:51:44.420Z,18.55
2022-09-24T15:54:10.964Z,18.53
2022-09-24T15:56:40.003Z,18.47
2022-09-24T15:59:13.832Z,18.44
2022-09-24T16:01:41.219Z,18.40
2022-09-24T16:04:11.325Z,18.35
2022-09-24T16:06:38.595Z,18.31
2022-09-24T16:09:05.197Z,18.27
2022-09-24T16:11:31.963Z,18.24
2022-09-24T16:13:58.536Z,18.20
2022-09-24T16:16:25.214Z,18.18
2022-09-24T16:18:51.957Z,18.13
2022-09-24T16:21:18.543Z,18.11
2022-09-24T16:23:45.079Z,18.07
2022-09-24T16:26:11.725Z,18.04
2022-09-24T16:28:38.234Z,18.00
2022-09-24T16:31:06.407Z,17.98
2022-09-24T16:33:38.009Z,17.93
2022-09-24T16:36:06.447Z,17.90
2022-09-24T16:38:37.757Z,17.88
2022-09-24T16:41:05.943Z,17.86
2022-09-24T16:43:33.092Z,17.74
2022-09-24T16:46:08.487Z,17.80
2022-09-24T16:48:35.220Z,17.79
2022-09-24T16:51:09.530Z,17.76
2022-09-24T16:53:36.746Z,17.73
2022-09-24T16:56:21.085Z,17.69
2022-09-24T16:58:47.576Z,17.70
2022-09-24T17:01:16.533Z,17.68
2022-09-24T17:03:43.767Z,17.69
2022-09-24T17:06:22.011Z,17.65
2022-09-24T17:08:48.761Z,17.65
2022-09-24T17:11:16.021Z,17.64
2022-09-24T17:16:40.932Z,17.56
2022-09-24T17:19:11.419Z,17.54
2022-09-24T17:21:40.598Z,17.51
2022-09-24T17:24:07.631Z,17.49
2022-09-24T17:26:34.176Z,17.47
2022-09-24T17:29:00.742Z,17.47
2022-09-24T17:31:27.926Z,17.45
2022-09-24T17:33:59.339Z,17.43
2022-09-24T17:36:27.485Z,17.44
2022-09-24T17:38:53.923Z,17.31
2022-09-24T17:41:20.818Z,17.39
2022-09-24T17:43:47.372Z,17.40
2022-09-24T17:46:16.983Z,17.38
2022-09-24T17:48:46.253Z,17.38
2022-09-24T17:51:24.282Z,17.37
2022-09-24T17:53:52.804Z,17.34
2022-09-24T17:56:21.221Z,17.32
2022-09-24T17:58:47.914Z,17.30
2022-09-24T18:01:18.406Z,17.29
2022-09-24T18:03:45.807Z,17.28
2022-09-24T18:06:13.975Z,17.26
2022-09-24T18:08:45.139Z,17.25
2022-09-24T18:11:13.110Z,17.24
2022-09-24T18:13:40.111Z,17.22
2022-09-24T18:16:12.050Z,17.21
2022-09-24T18:18:39.262Z,17.19
2022-09-24T18:21:08.883Z,17.16
2022-09-24T18:23:35.520Z,17.17
2022-09-24T18:26:13.098Z,17.16
2022-09-24T18:28:41.170Z,17.14
2022-09-24T18:31:09.859Z,17.14
2022-09-24T18:33:38.887Z,17.13
2022-09-24T18:36:08.487Z,17.13
2022-09-24T18:38:35.624Z,17.13
2022-09-24T18:41:14.463Z,17.10
2022-09-24T18:43:42.137Z,17.09
2022-09-24T18:46:11.499Z,17.08
2022-09-24T18:48:39.386Z,17.08
2022-09-24T18:51:07.597Z,17.06
2022-09-24T18:53:34.401Z,16.96
2022-09-24T18:56:06.250Z,17.05
2022-09-24T18:58:33.333Z,17.04
2022-09-24T19:01:01.281Z,17.04
2022-09-24T19:03:29.062Z,17.04
2022-09-24T19:06:01.782Z,17.04
2022-09-24T19:08:28.736Z,17.04
2022-09-24T19:10:55.283Z,17.04
2022-09-24T19:13:26.138Z,17.02
2022-09-24T19:15:53.098Z,17.01
2022-09-24T19:18:19.645Z,17.00
2022-09-24T19:20:47.416Z,16.98
2022-09-24T19:23:14.473Z,16.95
2022-09-24T19:25:41.979Z,16.94
2022-09-24T19:28:11.402Z,16.93
2022-09-24T19:30:43.430Z,16.91
2022-09-24T19:33:11.653Z,16.89
2022-09-24T19:35:38.062Z,16.77
2022-09-24T19:38:04.724Z,16.84
2022-09-24T19:40:31.314Z,16.85
2022-09-24T19:42:57.869Z,16.84
2022-09-24T19:45:24.354Z,16.82
2022-09-24T19:47:50.902Z,16.82
2022-09-24T19:50:17.942Z,16.81
2022-09-24T19:52:44.728Z,16.80
2022-09-24T19:55:11.292Z,16.81
2022-09-24T19:57:37.761Z,16.81
2022-09-24T20:00:04.749Z,16.82
2022-09-24T20:02:31.464Z,16.83
2022-09-24T20:04:58.084Z,16.82
2022-09-24T20:07:24.555Z,16.84
2022-09-24T20:09:51.080Z,16.83
2022-09-24T20:12:17.547Z,16.83
2022-09-24T20:14:44.023Z,16.81
2022-09-24T20:17:11.046Z,16.81
2022-09-24T20:19:37.976Z,16.80
2022-09-24T20:22:06.643Z,16.78
2022-09-24T20:24:38.022Z,16.77
2022-09-24T20:27:04.515Z,16.74
2022-09-24T20:29:31.049Z,16.73
2022-09-24T20:31:57.526Z,16.71
2022-09-24T20:34:30.520Z,16.68
2022-09-24T20:36:57.058Z,16.67
2022-09-24T20:39:23.557Z,16.65
2022-09-24T20:41:50.200Z,16.64
2022-09-24T20:44:16.964Z,16.65
2022-09-24T20:46:43.709Z,16.63
2022-09-24T20:49:17.373Z,16.62
2022-09-24T20:51:44.009Z,16.62
2022-09-24T20:54:10.564Z,16.62
2022-09-24T20:56:37.192Z,16.61
2022-09-24T20:59:03.787Z,16.60
2022-09-24T21:01:30.390Z,16.60
2022-09-24T21:03:56.929Z,16.58
2022-09-24T21:06:23.708Z,16.57
2022-09-24T21:08:51.216Z,16.57
2022-09-24T21:11:23.075Z,16.56
2022-09-24T21:13:52.048Z,16.57
2022-09-24T21:16:21.318Z,16.56
2022-09-24T21:18:49.325Z,16.57
2022-09-24T21:21:17.155Z,16.56
2022-09-24T21:23:45.228Z,16.57
2022-09-24T21:26:13.136Z,16.47
2022-09-24T21:28:40.540Z,16.56
2022-09-24T21:31:07.552Z,16.56
2022-09-24T21:33:34.797Z,16.57
2022-09-24T21:36:06.605Z,16.56
2022-09-24T21:38:33.851Z,16.57
2022-09-24T21:41:00.473Z,16.57
2022-09-24T21:43:32.354Z,16.58
2022-09-24T21:46:03.813Z,16.59
2022-09-24T21:48:30.681Z,16.59
2022-09-24T21:51:18.162Z,16.57
2022-09-24T21:53:45.016Z,16.58
2022-09-24T21:56:11.549Z,16.57
2022-09-24T21:58:38.152Z,16.57
2022-09-24T22:01:15.472Z,16.56
2022-09-24T22:03:42.107Z,16.55
2022-09-24T22:06:08.642Z,16.55
2022-09-24T22:08:35.201Z,16.55
2022-09-24T22:11:04.935Z,16.55
2022-09-24T22:13:32.279Z,16.54
2022-09-24T22:15:59.811Z,16.51
2022-09-24T22:18:27.687Z,16.54
2022-09-24T22:20:58.637Z,16.53
2022-09-24T22:23:25.197Z,16.51
2022-09-24T22:25:56.323Z,16.50
2022-09-24T22:28:23.987Z,16.50
2022-09-24T22:30:58.596Z,16.48
2022-09-24T22:33:26.043Z,16.47
2022-09-24T22:35:55.738Z,16.44
2022-09-24T22:38:22.310Z,16.45
2022-09-24T22:40:49.615Z,16.43
2022-09-24T22:43:16.121Z,16.40
2022-09-24T22:45:42.726Z,16.39
2022-09-24T22:48:10.181Z,16.37
2022-09-24T22:50:36.814Z,16.35
2022-09-24T22:53:03.460Z,16.34
2022-09-24T22:55:30.138Z,16.30
2022-09-24T22:57:56.745Z,16.27
2022-09-24T23:00:23.395Z,16.24
2022-09-24T23:02:49.907Z,16.17
2022-09-24T23:05:16.569Z,16.12
2022-09-24T23:07:43.171Z,16.05
2022-09-24T23:10:09.896Z,15.99
2022-09-24T23:12:36.385Z,15.91
2022-09-24T23:15:03.390Z,15.84
2022-09-24T23:17:29.889Z,15.76
2022-09-24T23:19:56.564Z,15.71
2022-09-24T23:22:23.228Z,15.62
2022-09-24T23:24:50.105Z,15.56
2022-09-24T23:27:18.178Z,15.51
2022-09-24T23:29:44.901Z,15.35
2022-09-24T23:32:12.599Z,15.36
2022-09-24T23:34:39.130Z,15.31
2022-09-24T23:37:05.788Z,15.26
2022-09-24T23:39:32.796Z,15.19
2022-09-24T23:41:59.795Z,15.13
2022-09-24T23:44:26.285Z,15.07
2022-09-24T23:46:52.805Z,15.00
2022-09-24T23:49:19.380Z,14.94
2022-09-24T23:51:45.854Z,14.86
2022-09-24T23:54:12.484Z,14.82
2022-09-24T23:56:38.983Z,14.76
2022-09-24T23:59:05.568Z,14.71
